Trois-Pistoles, Canada
Current Conditions -  °F | °C
As of 8:00 PM on Saturday 22 Nov 2014 (Local Time) from CYYY Reporting Station
Light Snow Light Snow  
Wind Chill: 19°   Ceiling: 3000
Heat Index: 30°   Visibility: 10mi
Dew Point: 23°   Wind: 15mph
Humidity: 75%   Direction: 210°SSW
Pressure: 29.68"   Gusts: 22mph
Location:  48.12°N, 69.17°W
Report Text: CYYY 230100Z 21013G19KT 10SM -SN DRSN OVC030 M01/M05 A2968 RMK SC8 SLP052
Loading
Personal Weather Stations






























Interactive Weather Map New forecast layout! Learn more

10-Day Weather Forecast

Advertisements
Track Severe Weather on mobile